Flight Track Log - Related Links

Times and Time Zones

All times are in EDT time to prevent confusion due to time zone crossing. See the AAY823 flight status page for this flight to view local times or setup timezone preferences in your user account.

Time Position Orientation Groundspeed Altitude Reporting Facility
EDT Latitude Longitude Course Direction KTS MPH feet Rate Location/Type
Mon 12:02:56 PM 42.0722 -77.0039 196° South 221 254 4,700  Level New York Center
Mon 12:03:58 PM 42.0111 -77.0567 213° Southwest 243 280 7,800 2,876 Climbing New York Center
Mon 12:04:57 PM 41.9478 -77.1122 213° Southwest 270 311 10,500 2,118 Climbing New York Center
Mon 12:05:57 PM 41.8756 -77.1750 213° Southwest 289 333 12,000 1,488 Climbing New York Center
Mon 12:06:58 PM 41.7950 -77.2422 212° Southwest 321 369 13,500 1,934 Climbing New York Center
Mon 12:07:00 PM 40.1381 -78.2831 196° South  Level FlightAware Approximate
Mon 12:07:58 PM 41.6964 -77.3300 214° Southwest 366 421 15,900  Level New York Center
Mon 12:08:56 PM 41.6089 -77.4047 213° Southwest 387 445 17,800 1,932 Climbing New York Center
Mon 12:09:56 PM 41.5169 -77.4869 214° Southwest 393 452 19,700 1,900 Climbing New York Center
Mon 12:10:56 PM 41.4228 -77.5661 212° Southwest 398 458 21,600 1,736 Climbing New York Center
Mon 12:11:57 PM 41.3286 -77.6453 212° Southwest 398 458 23,200 1,475 Climbing New York Center
Mon 12:12:58 PM 41.2322 -77.7264 212° Southwest 403 464 24,600 1,320 Climbing New York Center
Mon 12:14:27 PM 41.1033 -77.8367 213° Southwest 408 470 26,500 1,589 Climbing Cleveland Center
Mon 12:15:29 PM 40.9889 -77.9319 212° Southwest 407 468 28,600 1,548 Climbing Cleveland Center
Mon 12:16:31 PM 40.8933 -78.0014 209° Southwest 400 460 29,700 1,065 Climbing Cleveland Center
Mon 12:17:33 PM 40.7867 -78.0442 197° South 404 465 30,800 864 Climbing Cleveland Center
Mon 12:18:36 PM 40.6797 -78.0844 196° South 400 460 31,500 576 Climbing Cleveland Center
Mon 12:19:38 PM 40.5717 -78.1250 196° South 401 461 32,000 242 Climbing Cleveland Center
Mon 12:20:40 PM 40.4625 -78.1667 196° South 404 465 32,000 48 Level Cleveland Center
Mon 12:21:42 PM 40.3333 -78.2161 196° South 404 465 32,100 48 Climbing Cleveland Center
Mon 12:22:44 PM 40.2256 -78.2569 196° South 405 466 32,100 -48 Level Cleveland Center
Mon 12:23:46 PM 40.1181 -78.2981 196° South 404 465 32,000 -48 Descending Cleveland Center
Mon 12:24:48 PM 40.0108 -78.3383 196° South 404 465 32,000  Level Cleveland Center
Mon 12:25:50 PM 39.9014 -78.3703 193° South 405 466 32,000  Level Cleveland Center
Mon 12:26:52 PM 39.7708 -78.4075 192° South 402 463 32,000  Level Cleveland Center
Mon 12:27:54 PM 39.6719 -78.4469 197° South 402 463 32,000  Level Cleveland Center
Mon 12:28:44 PM 39.5833 -78.4808 196° South 410 472 32,000  Level Washington Center
Mon 12:29:45 PM 39.4739 -78.5247 197° South 410 472 32,000  Level Washington Center
Mon 12:30:43 PM 39.3622 -78.5686 197° South 410 472 32,000  Level Washington Center
Mon 12:31:43 PM 39.2531 -78.6069 195° South 410 472 32,000  Level Washington Center
Mon 12:32:44 PM 39.1392 -78.6506 197° South 410 472 32,000  Level Washington Center
Mon 12:33:45 PM 39.0278 -78.6911 196° South 415 478 32,000  Level Washington Center
Mon 12:34:43 PM 38.9161 -78.7344 197° South 420 483 32,000  Level Washington Center
Mon 12:35:44 PM 38.8003 -78.7775 196° South 432 497 32,000  Level Washington Center
Mon 12:36:45 PM 38.6844 -78.8203 196° South 432 497 32,000  Level Washington Center
Mon 12:37:43 PM 38.5708 -78.8658 197° South 432 497 32,000  Level Washington Center
Mon 12:38:43 PM 38.4592 -78.9061 196° South 432 497 32,000  Level Washington Center
Mon 12:39:44 PM 38.3431 -78.9511 197° South 432 497 32,000  Level Washington Center
Mon 12:40:45 PM 38.2253 -78.9933 196° South 432 497 32,000  Level Washington Center
Mon 12:41:43 PM 38.1072 -79.0383 197° South 437 503 32,000  Level Washington Center
Mon 12:42:44 PM 37.9892 -79.0803 196° South 444 511 32,000  Level Washington Center
Mon 12:43:45 PM 37.8747 -79.1356 201° Southwest 444 511 32,000  Level Washington Center
Mon 12:44:43 PM 37.7606 -79.1878 200° South 444 511 32,000  Level Washington Center
Mon 12:45:43 PM 37.6442 -79.2428 201° Southwest 444 511 32,000  Level Washington Center
Mon 12:46:44 PM 37.5172 -79.3047 201° Southwest 450 518 32,000  Level Washington Center
Mon 12:47:45 PM 37.4072 -79.3489 198° South 455 524 32,000  Level Washington Center
Mon 12:48:42 PM 37.2908 -79.4058 201° Southwest 455 524 32,000  Level Washington Center
Mon 12:49:44 PM 37.1636 -79.4672 201° Southwest 455 524 32,000  Level Washington Center
Mon 12:50:44 PM 37.0494 -79.5189 200° South 455 524 32,000  Level Washington Center
Mon 12:51:45 PM 36.9350 -79.5728 201° Southwest 450 518 32,000  Level Washington Center
Mon 12:52:45 PM 36.8183 -79.6239 199° South 450 518 32,000  Level Washington Center
Mon 12:53:45 PM 36.7017 -79.6800 201° Southwest 450 518 32,000  Level Washington Center
Mon 12:54:45 PM 36.5853 -79.7333 200° South 450 518 32,000  Level Washington Center
Mon 12:56:10 PM 36.4272 -79.8019 199° South 470 541 32,000  Level Atlanta Center
Mon 12:57:10 PM 36.3103 -79.8544 200° South 458 527 32,000  Level Atlanta Center
Mon 12:58:10 PM 36.1931 -79.9069 200° South 458 527 32,000  Level Atlanta Center
Mon 12:59:10 PM 36.0761 -79.9592 200° South 453 521 32,000  Level Atlanta Center
Mon 01:00:10 PM 35.9611 -80.0161 202° Southwest 453 521 32,000  Level Atlanta Center
Mon 01:01:10 PM 35.8461 -80.0731 202° Southwest 448 516 32,000  Level Atlanta Center
Mon 01:02:10 PM 35.7311 -80.1325 203° Southwest 448 516 32,000  Level Atlanta Center
Mon 01:03:10 PM 35.6039 -80.1972 202° Southwest 448 516 32,000  Level Atlanta Center
Mon 01:04:10 PM 35.4869 -80.2564 202° Southwest 448 516 32,000  Level Atlanta Center
Mon 01:05:10 PM 35.3819 -80.3069 201° Southwest 448 516 32,000  Level Atlanta Center
Mon 01:06:10 PM 35.2669 -80.3656 203° Southwest 448 516 32,000  Level Atlanta Center
Mon 01:08:09 PM 35.0336 -80.4817 202° Southwest 475 547 32,000  Level Jacksonville Center
Mon 01:09:09 PM 34.9161 -80.5433 203° Southwest 470 541 32,000  Level Jacksonville Center
Mon 01:10:09 PM 34.7919 -80.6072 203° Southwest 465 535 32,000 -50 Level Jacksonville Center
Mon 01:11:09 PM 34.6742 -80.6608 201° Southwest 453 521 31,900  Descending Jacksonville Center
Mon 01:12:09 PM 34.5644 -80.7142 202° Southwest 459 528 32,000 50 Climbing Jacksonville Center
Mon 01:13:09 PM 34.4447 -80.7803 204° Southwest 467 537 32,000  Level Jacksonville Center
Mon 01:14:09 PM 34.3267 -80.8333 200° South 472 543 32,000  Level Jacksonville Center
Mon 01:15:09 PM 34.2003 -80.8914 201° Southwest 466 536 32,000  Level Jacksonville Center
Mon 01:16:09 PM 34.0844 -80.9494 203° Southwest 461 531 32,000 -50 Level Jacksonville Center
Mon 01:17:09 PM 33.9664 -81.0044 201° Southwest 456 525 31,900  Descending Jacksonville Center
Mon 01:18:09 PM 33.8564 -81.0544 201° Southwest 456 525 32,000 50 Climbing Jacksonville Center
Mon 01:19:09 PM 33.7281 -81.1219 204° Southwest 461 531 32,000  Level Jacksonville Center
Mon 01:20:09 PM 33.6097 -81.1792 202° Southwest 461 531 32,000  Level Jacksonville Center
Mon 01:21:09 PM 33.4917 -81.2389 203° Southwest 461 531 32,000  Level Jacksonville Center
Mon 01:22:09 PM 33.3733 -81.2958 202° Southwest 466 536 32,000 -50 Level Jacksonville Center
Mon 01:23:09 PM 33.2531 -81.3550 202° Southwest 466 536 31,900 -50 Descending Jacksonville Center
Mon 01:24:09 PM 33.1347 -81.4117 202° Southwest 466 536 31,900 50 Level Jacksonville Center
Mon 01:25:09 PM 33.0167 -81.4706 203° Southwest 472 543 32,000 50 Climbing Jacksonville Center
Mon 01:26:09 PM 32.8981 -81.5269 202° Southwest 472 543 32,000  Level Jacksonville Center
Mon 01:27:09 PM 32.7797 -81.5881 203° Southwest 472 543 32,000  Level Jacksonville Center
Mon 01:28:09 PM 32.6717 -81.6364 201° Southwest 472 543 32,000  Level Jacksonville Center
Mon 01:29:09 PM 32.5389 -81.7022 203° Southwest 467 537 32,000  Level Jacksonville Center
Mon 01:30:09 PM 32.4264 -81.7333 193° South 467 537 32,000  Level Jacksonville Center
Mon 01:31:09 PM 32.2889 -81.7644 191° South 467 537 32,000  Level Jacksonville Center
Mon 01:32:09 PM 32.1597 -81.7931 191° South 467 537 32,000  Level Jacksonville Center
Mon 01:33:09 PM 32.0492 -81.8167 190° South 467 537 32,000  Level Jacksonville Center
Mon 01:34:09 PM 31.9075 -81.8500 191° South 467 537 32,000  Level Jacksonville Center
Mon 01:35:09 PM 31.7972 -81.8758 191° South 467 537 32,000  Level Jacksonville Center
Mon 01:36:09 PM 31.6553 -81.9067 190° South 467 537 32,000  Level Jacksonville Center
Mon 01:37:09 PM 31.5325 -81.9347 191° South 467 537 32,000  Level Jacksonville Center
Mon 01:38:09 PM 31.4178 -81.9603 191° South 467 537 32,000  Level Jacksonville Center
Mon 01:39:09 PM 31.2906 -81.9906 191° South 467 537 32,000  Level Jacksonville Center
Mon 01:40:09 PM 31.1656 -82.0186 191° South 467 537 32,000  Level Jacksonville Center
Mon 01:41:09 PM 31.0403 -82.0439 190° South 467 537 32,000  Level Jacksonville Center
Mon 01:42:09 PM 30.9153 -82.0742 192° South 467 537 32,000 -50 Level Jacksonville Center
Mon 01:43:09 PM 30.7903 -82.0994 190° South 467 537 31,900 -50 Descending Jacksonville Center
Mon 01:44:09 PM 30.6714 -82.1269 191° South 461 531 31,900 50 Level Jacksonville Center
Mon 01:45:09 PM 30.5336 -82.1522 189° South 461 531 32,000  Climbing Jacksonville Center
Mon 01:46:09 PM 30.4086 -82.1772 190° South 461 531 31,900 -50 Descending Jacksonville Center
Mon 01:47:09 PM 30.2833 -82.1950 187° South 461 531 31,900 -150 Level Jacksonville Center
Mon 01:48:09 PM 30.1747 -82.1981 181° South 453 521 31,600 -750 Descending Jacksonville Center
Mon 01:49:09 PM 30.0475 -82.2014 181° South 453 521 30,400 -1,300 Descending Jacksonville Center
Mon 01:50:09 PM 29.9056 -82.2144 185° South 463 533 29,000 -1,300 Descending Jacksonville Center
Mon 01:51:09 PM 29.7761 -82.2203 182° South 463 533 27,800 -1,150 Descending Jacksonville Center
Mon 01:52:09 PM 29.6614 -82.2208 180° South 458 527 26,700 -1,600 Descending Jacksonville Center
Mon 01:53:09 PM 29.5342 -82.2267 182° South 463 533 24,600 -1,600 Descending Jacksonville Center
Mon 01:54:09 PM 29.4067 -82.2203 178° South 463 533 23,500 -1,000 Descending Jacksonville Center
Mon 01:55:09 PM 29.2875 -82.2044 173° South 449 517 22,600 -1,000 Descending Jacksonville Center
Mon 01:56:09 PM 29.1686 -82.1933 175° South 444 511 21,500 -1,050 Descending Jacksonville Center
Mon 01:57:09 PM 29.0517 -82.1872 177° South 433 498 20,500 -1,600 Descending Jacksonville Center
Mon 01:58:09 PM 28.9369 -82.1928 182° South 425 489 18,300 -2,637 Descending Jacksonville Center
Mon 02:00:11 PM 28.7167 -82.2333 189° South 373 429 12,500 -2,352 Descending Tampa TRACON
Mon 02:01:05 PM 28.6333 -82.2500 190° South 302 348 11,400 -700 Descending Tampa TRACON
Mon 02:02:11 PM 28.5500 -82.2500 180° South 280 322 11,100 -190 Descending Tampa TRACON
Mon 02:03:11 PM 28.4667 -82.2500 180° South 286 329 11,000  Descending Tampa TRACON
Mon 02:04:11 PM 28.3833 -82.2667 190° South 289 333 11,100 53 Climbing Tampa TRACON
Mon 02:05:05 PM 28.3000 -82.2667 180° South 290 334 11,100 -444 Level Tampa TRACON
Mon 02:05:59 PM 28.2333 -82.2833 192° South 287 330 10,300 -1,222 Descending Tampa TRACON
Mon 02:06:53 PM 28.1667 -82.3000 192° South 286 329 8,900 -1,600 Descending Tampa TRACON
Mon 02:07:59 PM 28.0833 -82.3167 190° South 279 321 7,100 -900 Descending Tampa TRACON
Mon 02:08:53 PM 28.0167 -82.3333 192° South 276 318 7,100 -421 Level Tampa TRACON
Mon 02:09:53 PM 27.9333 -82.3500 190° South 282 325 6,300 -1,096 Descending Tampa TRACON
Mon 02:10:48 PM 27.8667 -82.3667 192° South 272 313 5,000 -1,488 Descending Tampa TRACON
Mon 02:11:54 PM 27.8000 -82.4000 204° Southwest 263 303 3,300 -1,045 Descending Tampa TRACON
Mon 02:13:00 PM 27.7500 -82.4833 236° Southwest 257 296 2,700 -273 Descending Tampa TRACON
Mon 02:14:06 PM 27.7167 -82.5500 241° Southwest 258 297 2,700 -45 Level Tampa TRACON
Mon 02:15:12 PM 27.7167 -82.6333 270° West 241 277 2,600 -150 Descending Tampa TRACON
Mon 02:16:06 PM 27.7667 -82.6667 329° Northwest 224 258 2,400 -550 Descending Tampa TRACON
Mon 02:17:12 PM 27.8167 -82.6667 360° North 176 203 1,500 -762 Descending Tampa TRACON
Mon 02:18:12 PM 27.8667 -82.6833 344° North 138 159 800 -700 Descending Tampa TRACON

Login

Don't have an account? Register now (free) for customized features, flight alerts, and more!